Time;durP1;ratioP1;P1;durP2;ratioP2;P2;SDS_P1;SDS_P2;PMS_P1;PMS_P2;Temp;Humidity;BMP_temperature;BMP_pressure;BME280_temperature;BME280_humidity;BME280_pressure;Samples;Min_cycle;Max_cycle;Signal;HPM_P1;HPM_P2
2022/05/22 00:01:36;;;;;;;12.35;4.05;;;;;;;12.04;88.02;101833.16;4993750;28;20433;-83
2022/05/22 00:04:02;;;;;;;10.73;4.53;;;;;;;12.03;87.66;101831.53;4991557;28;20030;-86
2022/05/22 00:06:27;;;;;;;12.88;4.40;;;;;;;12.02;87.62;101821.03;4990386;28;20413;-83
2022/05/22 00:08:52;;;;;;;14.23;4.77;;;;;;;11.97;87.60;101806.44;4990653;28;20431;-86
2022/05/22 00:11:18;;;;;;;8.10;4.17;;;;;;;12.04;87.27;101808.19;4987267;28;20033;-85
2022/05/22 00:13:43;;;;;;;11.47;4.23;;;;;;;12.08;86.89;101812.00;4990425;28;20363;-88
2022/05/22 00:18:54;;;;;;;10.53;4.43;;;;;;;12.14;87.19;101807.53;4991756;28;20406;-87
2022/05/22 00:21:19;;;;;;;10.13;4.30;;;;;;;12.14;86.34;101800.28;4994220;28;20034;-88
2022/05/22 00:23:45;;;;;;;8.23;3.97;;;;;;;12.21;86.46;101806.31;4989864;28;20084;-88
2022/05/22 00:26:10;;;;;;;13.60;4.13;;;;;;;12.23;85.98;101808.75;4990265;28;20105;-88
2022/05/22 00:28:35;;;;;;;9.53;4.47;;;;;;;12.20;85.80;101803.84;4990864;28;20100;-88
2022/05/22 00:31:01;;;;;;;8.40;4.50;;;;;;;12.20;85.94;101795.78;4988410;28;20045;-88
2022/05/22 00:33:28;;;;;;;13.13;4.70;;;;;;;12.24;85.63;101796.94;4990472;28;20293;-88
2022/05/22 00:35:53;;;;;;;10.50;4.80;;;;;;;12.20;85.69;101788.56;4992540;28;20064;-88
2022/05/22 00:38:18;;;;;;;14.07;5.50;;;;;;;12.15;85.87;101776.91;4995650;28;20062;-88
2022/05/22 00:40:44;;;;;;;11.17;4.70;;;;;;;12.14;85.54;101788.72;4995117;28;20477;-88
2022/05/22 00:43:33;;;;;;;8.63;4.70;;;;;;;12.05;85.68;101781.06;5009603;28;20032;-87
2022/05/22 00:46:00;;;;;;;13.00;5.22;;;;;;;12.01;86.44;101784.50;4993760;28;20039;-88
2022/05/22 00:48:27;;;;;;;14.73;5.25;;;;;;;11.92;86.43;101778.69;4990630;28;20113;-87
2022/05/22 00:50:59;;;;;;;14.40;5.18;;;;;;;11.82;86.63;101784.69;4989706;28;20022;-87
2022/05/22 00:53:27;;;;;;;13.93;5.03;;;;;;;11.74;86.85;101774.34;4993024;28;20030;-88
2022/05/22 00:55:53;;;;;;;12.87;5.07;;;;;;;11.72;87.09;101790.69;4990858;28;20474;-87
2022/05/22 00:58:22;;;;;;;11.77;5.37;;;;;;;11.65;87.58;101785.47;4989396;28;20380;-88
2022/05/22 01:00:50;;;;;;;14.90;5.82;;;;;;;11.67;87.75;101779.84;4990963;28;20031;-88
2022/05/22 01:03:31;;;;;;;14.45;5.75;;;;;;;11.65;87.94;101771.22;5006206;28;20030;-88
2022/05/22 01:06:13;;;;;;;18.30;5.88;;;;;;;11.62;87.87;101771.72;4989611;28;20088;-88
2022/05/22 01:08:39;;;;;;;9.45;5.55;;;;;;;11.59;87.83;101769.53;4989999;28;20033;-88
2022/05/22 01:11:13;;;;;;;13.43;5.00;;;;;;;11.51;87.79;101776.06;4990572;28;20030;-89
2022/05/22 01:13:42;;;;;;;17.70;5.35;;;;;;;11.44;88.36;101776.22;4988640;28;20488;-88
2022/05/22 01:16:08;;;;;;;14.82;5.20;;;;;;;11.39;88.43;101780.69;4990991;28;20061;-88
2022/05/22 01:18:47;;;;;;;12.57;5.33;;;;;;;11.33;88.59;101785.16;4995476;28;20048;-88
2022/05/22 01:21:25;;;;;;;13.70;5.70;;;;;;;11.28;88.67;101785.03;5000703;28;20061;-88
2022/05/22 01:23:51;;;;;;;11.38;5.75;;;;;;;11.21;89.12;101791.38;5013818;28;20600;-88
2022/05/22 01:26:17;;;;;;;10.95;5.70;;;;;;;11.10;89.24;101786.06;5008006;28;20534;-88
2022/05/22 01:28:43;;;;;;;14.75;5.88;;;;;;;11.00;89.92;101781.28;4992438;28;20041;-88
2022/05/22 01:31:08;;;;;;;15.13;5.40;;;;;;;10.90;90.07;101771.16;4992258;28;20031;-88
2022/05/22 01:33:36;;;;;;;11.47;5.23;;;;;;;10.83;90.50;101773.16;4993074;28;20097;-86
2022/05/22 01:36:02;;;;;;;13.07;5.32;;;;;;;10.76;90.72;101757.19;4993304;28;20026;-87
2022/05/22 01:38:28;;;;;;;10.63;5.15;;;;;;;10.73;90.97;101758.50;4993535;28;20035;-87
2022/05/22 01:40:53;;;;;;;13.33;5.63;;;;;;;10.65;91.21;101745.44;4994276;28;20033;-87
2022/05/22 01:43:18;;;;;;;13.85;5.57;;;;;;;10.60;91.20;101751.53;4994354;28;20034;-86
2022/05/22 01:45:44;;;;;;;17.13;5.63;;;;;;;10.52;91.55;101751.06;4993246;28;20034;-87
2022/05/22 01:48:10;;;;;;;13.00;5.70;;;;;;;10.38;91.78;101740.59;4992803;28;20038;-86
2022/05/22 01:50:38;;;;;;;8.30;5.57;;;;;;;10.32;92.10;101740.69;4991921;28;20026;-86
2022/05/22 01:53:04;;;;;;;10.98;5.55;;;;;;;10.26;92.24;101737.06;4993534;28;20022;-86
2022/05/22 01:55:29;;;;;;;13.02;5.75;;;;;;;10.15;92.90;101739.53;4993031;28;20022;-86
2022/05/22 01:57:55;;;;;;;15.03;6.07;;;;;;;10.08;92.99;101732.66;4992810;28;20056;-86
2022/05/22 02:00:20;;;;;;;15.37;6.67;;;;;;;10.05;93.15;101744.63;4992748;28;20050;-86
2022/05/22 02:02:47;;;;;;;12.50;5.70;;;;;;;10.01;93.59;101743.47;4993130;28;20026;-86
2022/05/22 02:05:14;;;;;;;16.25;6.20;;;;;;;9.91;93.80;101744.03;4994168;28;20422;-87
2022/05/22 02:10:24;;;;;;;13.95;6.13;;;;;;;9.80;93.97;101736.78;5003292;28;20555;-84
2022/05/22 02:12:51;;;;;;;11.52;5.75;;;;;;;9.73;94.67;101728.88;5015254;28;20077;-84
2022/05/22 02:15:18;;;;;;;11.70;5.80;;;;;;;9.70;94.92;101732.00;5011544;28;20070;-86
2022/05/22 02:17:43;;;;;;;12.77;5.90;;;;;;;9.65;94.90;101730.00;4999551;28;20038;-85
2022/05/22 02:20:09;;;;;;;9.03;5.53;;;;;;;9.63;95.26;101728.63;5009119;28;20033;-85
2022/05/22 02:22:46;;;;;;;13.13;5.80;;;;;;;9.56;95.07;101720.69;5017228;28;20026;-85
2022/05/22 02:25:14;;;;;;;14.80;6.00;;;;;;;9.52;95.12;101719.53;5014792;28;20172;-86
2022/05/22 02:27:39;;;;;;;13.25;5.50;;;;;;;9.45;95.28;101711.59;5002640;28;20041;-85
2022/05/22 02:30:06;;;;;;;12.85;6.50;;;;;;;9.41;95.43;101713.09;4992336;28;20030;-85
2022/05/22 02:32:31;;;;;;;15.98;5.88;;;;;;;9.30;95.75;101705.84;4992159;28;20482;-85
2022/05/22 02:34:56;;;;;;;14.33;5.63;;;;;;;9.24;95.58;101702.19;4992347;28;20030;-85
2022/05/22 02:37:22;;;;;;;13.53;6.43;;;;;;;9.21;96.11;101695.47;4992062;28;20057;-85
2022/05/22 02:39:48;;;;;;;13.67;5.77;;;;;;;9.17;96.36;101696.16;4993443;28;20029;-86
2022/05/22 02:42:13;;;;;;;12.18;6.80;;;;;;;9.15;97.21;101696.34;5002336;28;20030;-86
2022/05/22 02:44:39;;;;;;;13.13;6.37;;;;;;;9.14;96.61;101691.25;5008868;28;20037;-85
2022/05/22 02:47:04;;;;;;;13.20;6.03;;;;;;;9.09;96.61;101694.59;4993402;28;20284;-86
2022/05/22 02:49:29;;;;;;;12.77;6.03;;;;;;;9.05;97.00;101686.22;4992428;28;20057;-86
2022/05/22 02:51:55;;;;;;;10.87;6.43;;;;;;;8.99;97.32;101675.59;4992661;28;20576;-85
2022/05/22 02:54:21;;;;;;;15.30;6.70;;;;;;;8.99;97.41;101680.94;4993005;28;20026;-85
2022/05/22 02:56:46;;;;;;;13.20;6.13;;;;;;;8.98;98.35;101682.81;4991244;28;20401;-86
2022/05/22 02:59:12;;;;;;;16.73;7.10;;;;;;;8.99;98.45;101688.97;4992456;28;20030;-85
2022/05/22 03:01:37;;;;;;;11.90;6.60;;;;;;;8.99;98.72;101694.31;4991480;28;20110;-86
2022/05/22 03:04:03;;;;;;;13.07;6.80;;;;;;;8.98;98.12;101695.34;4991889;28;20033;-86
2022/05/22 03:06:38;;;;;;;14.03;6.23;;;;;;;8.98;98.23;101687.34;4990497;28;20035;-86
2022/05/22 03:09:05;;;;;;;10.97;6.87;;;;;;;8.97;98.50;101699.06;4991144;28;20298;-85
2022/05/22 03:11:30;;;;;;;15.27;6.95;;;;;;;9.01;98.96;101692.25;5010879;28;20033;-86
2022/05/22 03:13:56;;;;;;;11.60;6.83;;;;;;;9.06;98.79;101687.03;4998874;28;20023;-85
2022/05/22 03:16:21;;;;;;;14.70;6.53;;;;;;;9.12;98.91;101687.97;4990023;28;20135;-86
2022/05/22 03:18:47;;;;;;;10.90;6.03;;;;;;;9.16;98.28;101691.84;4992220;28;20038;-84
2022/05/22 03:21:13;;;;;;;9.40;6.00;;;;;;;9.09;98.19;101674.03;4990588;28;20031;-84
2022/05/22 03:23:39;;;;;;;10.63;5.95;;;;;;;9.15;98.11;101687.53;4990751;28;20018;-84
2022/05/22 03:26:04;;;;;;;11.70;5.93;;;;;;;9.09;98.37;101670.53;4990762;28;20041;-84
2022/05/22 03:28:29;;;;;;;13.60;6.43;;;;;;;9.12;98.15;101678.13;4991897;28;20034;-84
2022/05/22 03:30:54;;;;;;;9.43;6.10;;;;;;;9.19;98.08;101675.34;4991557;28;20030;-84
2022/05/22 03:33:20;;;;;;;14.13;6.50;;;;;;;9.18;98.15;101666.50;4990517;28;20022;-84
2022/05/22 03:35:45;;;;;;;13.67;5.77;;;;;;;9.18;98.01;101671.84;4990548;28;20040;-84
2022/05/22 03:38:10;;;;;;;14.37;5.67;;;;;;;9.16;98.30;101668.56;5006530;28;20034;-84
2022/05/22 03:40:45;;;;;;;13.37;6.03;;;;;;;9.16;98.53;101667.78;4989081;28;20045;-84
2022/05/22 03:43:11;;;;;;;11.45;6.45;;;;;;;9.15;98.72;101668.81;4990021;28;20024;-84
2022/05/22 03:45:36;;;;;;;16.57;6.67;;;;;;;9.16;98.97;101667.78;4989749;28;20026;-83
2022/05/22 03:48:03;;;;;;;12.73;6.90;;;;;;;9.17;99.15;101659.50;4998926;28;20035;-84
2022/05/22 03:50:29;;;;;;;12.00;6.18;;;;;;;9.17;98.86;101664.88;4990798;28;20077;-84
2022/05/22 03:52:54;;;;;;;12.10;6.10;;;;;;;9.13;98.65;101655.66;5005668;28;20490;-84
2022/05/22 03:55:19;;;;;;;10.17;6.57;;;;;;;9.15;98.09;101655.44;4990621;28;20018;-85
2022/05/22 03:57:47;;;;;;;10.50;6.13;;;;;;;9.13;98.54;101652.97;4989681;28;20034;-85
2022/05/22 04:00:14;;;;;;;16.80;6.28;;;;;;;9.13;98.68;101658.34;4990259;28;20085;-84
2022/05/22 04:02:39;;;;;;;10.70;5.78;;;;;;;9.13;98.82;101650.31;4988809;28;20022;-84
2022/05/22 04:05:08;;;;;;;8.63;5.63;;;;;;;9.21;98.60;101655.34;4991203;28;20037;-84
2022/05/22 04:07:43;;;;;;;8.95;5.78;;;;;;;9.26;98.97;101662.69;4991168;28;20026;-83
2022/05/22 04:10:12;;;;;;;9.30;5.65;;;;;;;9.32;98.87;101666.28;4991643;28;20034;-84
2022/05/22 04:12:39;;;;;;;11.33;6.10;;;;;;;9.37;98.76;101666.44;4989492;28;20036;-84
2022/05/22 04:15:10;;;;;;;15.33;6.87;;;;;;;9.50;98.46;101657.38;4990704;28;20292;-84
2022/05/22 04:17:35;;;;;;;13.05;6.70;;;;;;;9.48;97.24;101659.47;4988922;28;20023;-84
2022/05/22 04:20:01;;;;;;;12.25;6.90;;;;;;;9.46;97.13;101658.88;4991181;28;20031;-84
2022/05/22 04:22:26;;;;;;;11.93;6.77;;;;;;;9.44;97.41;101651.09;4989986;28;20034;-84
2022/05/22 04:27:40;;;;;;;12.55;6.93;;;;;;;9.42;97.56;101661.22;4991362;28;20041;-84
2022/05/22 04:30:07;;;;;;;13.35;7.03;;;;;;;9.43;97.22;101657.50;4991660;28;20149;-84
2022/05/22 04:32:33;;;;;;;14.88;7.53;;;;;;;9.44;97.57;101659.13;4988973;28;20042;-84
2022/05/22 04:34:58;;;;;;;14.10;8.03;;;;;;;9.48;97.94;101652.28;4988821;28;20026;-84
2022/05/22 04:37:26;;;;;;;15.47;7.77;;;;;;;9.60;97.52;101648.81;4990174;28;20094;-85
2022/05/22 04:39:51;;;;;;;15.13;8.23;;;;;;;9.71;97.37;101658.69;5000726;28;20080;-85
2022/05/22 04:42:17;;;;;;;13.55;8.00;;;;;;;9.79;96.87;101658.38;5010316;28;20109;-84
2022/05/22 04:44:42;;;;;;;17.67;8.37;;;;;;;9.85;96.59;101660.13;4989285;28;20041;-84
2022/05/22 04:47:07;;;;;;;16.63;7.90;;;;;;;9.94;96.32;101665.13;4989023;28;20552;-85
2022/05/22 04:49:33;;;;;;;15.97;7.67;;;;;;;9.98;96.54;101663.59;4991935;28;20027;-84
2022/05/22 04:51:58;;;;;;;16.53;8.60;;;;;;;10.09;96.37;101668.13;4990298;28;20041;-84
2022/05/22 04:54:24;;;;;;;15.82;8.50;;;;;;;10.57;95.39;101665.44;4994081;28;20026;-84
2022/05/22 04:56:49;;;;;;;17.13;8.73;;;;;;;11.45;92.95;101657.09;4994603;28;20080;-84
2022/05/22 04:59:14;;;;;;;15.20;8.30;;;;;;;12.39;89.65;101662.78;4994447;28;20026;-84
2022/05/22 05:01:39;;;;;;;20.10;7.73;;;;;;;13.24;85.83;101660.72;5000859;28;20027;-84
2022/05/22 05:04:05;;;;;;;15.77;7.97;;;;;;;13.90;80.34;101655.06;4992467;28;20449;-84
2022/05/22 05:06:30;;;;;;;15.93;7.60;;;;;;;14.37;77.95;101663.41;4994868;28;20019;-84
2022/05/22 05:08:56;;;;;;;14.70;6.80;;;;;;;14.56;75.93;101657.53;5013869;28;20694;-85
2022/05/22 05:11:22;;;;;;;14.10;7.30;;;;;;;14.75;75.52;101657.91;4993666;28;20100;-86
2022/05/22 05:13:47;;;;;;;15.40;7.27;;;;;;;15.23;73.93;101658.53;4993806;28;20046;-88
2022/05/22 05:16:13;;;;;;;14.70;7.43;;;;;;;15.73;71.57;101647.16;4994258;28;20033;-88
2022/05/22 05:18:40;;;;;;;13.15;7.15;;;;;;;16.26;69.90;101654.91;4976292;28;20064;-87
2022/05/22 05:21:12;;;;;;;13.75;6.68;;;;;;;16.66;68.41;101657.69;4994363;28;20045;-84
2022/05/22 05:23:38;;;;;;;13.37;6.13;;;;;;;17.02;66.17;101664.84;4995122;28;20486;-85
2022/05/22 05:26:04;;;;;;;13.53;6.47;;;;;;;16.81;65.31;101660.31;5003470;28;20289;-86
2022/05/22 05:28:31;;;;;;;12.15;6.55;;;;;;;15.86;67.89;101670.97;5008661;28;20036;-87
2022/05/22 05:30:57;;;;;;;8.77;6.55;;;;;;;15.25;70.47;101664.47;5012241;28;20020;-84
2022/05/22 05:33:23;;;;;;;14.45;6.72;;;;;;;15.08;71.82;101669.31;5011506;28;20030;-85
2022/05/22 05:35:48;;;;;;;13.50;7.50;;;;;;;14.71;72.53;101665.72;4994851;28;20037;-84
2022/05/22 05:38:14;;;;;;;13.70;7.23;;;;;;;14.23;74.14;101661.19;5009740;28;20034;-85
2022/05/22 05:40:41;;;;;;;12.60;7.85;;;;;;;13.84;75.78;101661.50;5012896;28;20519;-85
2022/05/22 05:43:07;;;;;;;16.93;8.10;;;;;;;13.60;77.39;101658.38;5013249;28;20021;-85
2022/05/22 05:45:33;;;;;;;13.35;7.97;;;;;;;13.34;78.67;101663.50;5001681;28;20505;-85
2022/05/22 05:47:58;;;;;;;18.90;8.53;;;;;;;13.05;80.28;101669.16;4993424;28;20633;-84
2022/05/22 05:50:26;;;;;;;16.90;8.98;;;;;;;12.92;80.98;101658.81;4991742;28;20030;-85
2022/05/22 05:52:56;;;;;;;16.50;8.57;;;;;;;12.97;81.25;101667.75;4990619;28;20050;-86
2022/05/22 05:55:22;;;;;;;16.98;8.43;;;;;;;12.99;81.81;101662.09;4987083;28;20034;-86
2022/05/22 05:57:48;;;;;;;15.07;8.30;;;;;;;13.08;82.31;101665.16;5006865;28;20030;-85
2022/05/22 06:00:16;;;;;;;12.33;8.80;;;;;;;13.25;82.18;101665.84;4991777;28;20296;-86
2022/05/22 06:02:42;;;;;;;19.13;9.07;;;;;;;13.38;81.95;101667.31;4987807;28;20023;-86
2022/05/22 06:05:10;;;;;;;17.83;8.98;;;;;;;13.34;80.97;101671.56;4988728;28;20034;-86
2022/05/22 06:07:35;;;;;;;16.33;7.90;;;;;;;13.27;80.65;101671.00;4991589;28;20018;-86
2022/05/22 06:10:00;;;;;;;19.83;9.10;;;;;;;13.17;81.90;101677.09;4991201;28;20621;-85
2022/05/22 06:12:26;;;;;;;17.47;8.23;;;;;;;13.05;81.67;101668.38;4992598;28;20116;-85
2022/05/22 06:14:51;;;;;;;12.55;8.57;;;;;;;12.94;82.06;101667.44;4998925;28;20034;-86
2022/05/22 06:17:17;;;;;;;18.10;9.17;;;;;;;12.86;82.22;101672.19;4991746;28;20022;-86
2022/05/22 06:19:55;;;;;;;17.17;8.60;;;;;;;12.83;83.01;101656.56;4993430;28;20075;-85
2022/05/22 06:22:22;;;;;;;18.00;9.25;;;;;;;12.97;83.91;101665.06;4988033;28;20022;-86
2022/05/22 06:24:48;;;;;;;17.58;8.98;;;;;;;13.10;82.70;101660.31;4989260;28;20055;-86
2022/05/22 06:27:13;;;;;;;18.60;9.27;;;;;;;13.39;83.71;101663.56;4989780;28;20038;-86
2022/05/22 06:29:43;;;;;;;21.23;10.23;;;;;;;13.70;82.04;101666.50;4991236;28;20030;-86
2022/05/22 06:32:11;;;;;;;18.23;9.40;;;;;;;14.10;80.58;101677.84;4989295;28;20109;-86
2022/05/22 06:34:41;;;;;;;15.80;8.82;;;;;;;14.49;78.50;101674.78;4990758;28;20065;-87
2022/05/22 06:37:11;;;;;;;17.40;8.77;;;;;;;14.92;76.93;101681.94;4981124;28;20140;-87
2022/05/22 06:39:53;;;;;;;17.70;8.88;;;;;;;15.24;74.87;101670.94;4997957;28;20042;-87
2022/05/22 06:42:28;;;;;;;17.02;8.07;;;;;;;15.79;75.29;101683.91;4988126;28;20076;-86
2022/05/22 06:44:58;;;;;;;13.97;8.10;;;;;;;16.14;73.83;101682.25;4992058;28;20037;-86
2022/05/22 06:47:25;;;;;;;14.67;8.80;;;;;;;16.24;71.26;101676.00;4990675;28;20286;-86
2022/05/22 06:49:51;;;;;;;14.45;7.75;;;;;;;16.32;71.71;101680.84;4991111;28;20053;-87
2022/05/22 06:52:16;;;;;;;12.90;8.20;;;;;;;16.55;71.69;101680.47;4991361;28;20045;-86
2022/05/22 06:54:42;;;;;;;15.02;7.85;;;;;;;16.57;70.34;101684.53;4989985;28;20038;-86
2022/05/22 06:57:08;;;;;;;18.57;8.57;;;;;;;16.58;71.13;101677.22;4992307;28;20084;-87
2022/05/22 06:59:33;;;;;;;16.00;7.75;;;;;;;16.50;70.38;101675.91;4991638;28;20485;-87
2022/05/22 07:02:00;;;;;;;17.93;7.63;;;;;;;16.49;70.64;101679.69;4993584;28;20037;-87
2022/05/22 07:04:26;;;;;;;15.77;8.25;;;;;;;16.58;70.76;101679.94;5004418;28;20026;-86
2022/05/22 07:06:51;;;;;;;15.43;7.78;;;;;;;16.63;70.84;101671.78;4990549;28;20542;-86
2022/05/22 07:09:17;;;;;;;13.87;8.37;;;;;;;16.68;69.38;101668.25;4991839;28;20092;-86
2022/05/22 07:11:43;;;;;;;17.17;8.18;;;;;;;16.79;70.79;101669.81;4991523;28;20030;-86
2022/05/22 07:14:12;;;;;;;13.53;7.50;;;;;;;16.90;70.75;101675.97;4991726;28;20027;-86
2022/05/22 07:16:38;;;;;;;13.63;9.25;;;;;;;17.00;68.55;101675.13;4989178;28;20041;-87
2022/05/22 07:19:05;;;;;;;13.82;7.88;;;;;;;17.04;69.42;101663.44;4991147;28;20030;-88
2022/05/22 07:21:30;;;;;;;13.25;7.68;;;;;;;17.10;67.80;101677.75;4991962;28;20034;-88
2022/05/22 07:23:56;;;;;;;15.87;7.80;;;;;;;17.38;67.45;101678.91;4987822;28;20022;-87
2022/05/22 07:26:24;;;;;;;15.77;6.80;;;;;;;17.51;64.84;101682.88;5001790;28;20507;-88
2022/05/22 07:28:50;;;;;;;13.75;6.95;;;;;;;17.46;64.52;101674.78;4995193;28;20057;-88
2022/05/22 07:31:18;;;;;;;12.63;6.65;;;;;;;17.67;65.20;101664.59;5007234;28;20104;-89
2022/05/22 07:33:44;;;;;;;13.13;6.77;;;;;;;18.01;63.73;101666.44;4990831;28;20734;-88
2022/05/22 07:36:09;;;;;;;10.10;6.05;;;;;;;18.33;61.98;101661.47;4995001;28;20043;-85
2022/05/22 07:38:35;;;;;;;16.65;6.57;;;;;;;18.25;60.57;101665.63;4990366;28;20031;-85
2022/05/22 07:41:00;;;;;;;9.87;5.80;;;;;;;18.36;60.87;101662.78;4993061;28;20035;-83
2022/05/22 07:43:27;;;;;;;11.30;5.50;;;;;;;18.41;61.19;101660.81;4989744;28;20022;-84
2022/05/22 07:45:53;;;;;;;18.30;6.27;;;;;;;18.33;60.81;101666.06;4990677;28;20449;-85
2022/05/22 07:48:19;;;;;;;14.70;6.10;;;;;;;18.33;62.86;101655.22;4994964;28;20305;-84
2022/05/22 07:50:44;;;;;;;12.85;6.00;;;;;;;18.35;60.07;101661.97;4988809;28;20038;-85
2022/05/22 07:53:09;;;;;;;14.37;5.33;;;;;;;18.26;60.02;101658.28;4991335;28;20086;-82
2022/05/22 07:55:35;;;;;;;14.23;5.40;;;;;;;18.20;58.16;101659.44;4990585;28;20018;-82
2022/05/22 07:58:00;;;;;;;11.47;4.70;;;;;;;18.33;58.33;101656.03;4989867;28;20038;-82
2022/05/22 08:00:26;;;;;;;11.70;4.47;;;;;;;18.48;57.79;101652.31;4989730;28;20023;-82
2022/05/22 08:02:51;;;;;;;11.93;4.30;;;;;;;18.62;57.08;101649.69;4988720;28;20204;-82
2022/05/22 08:05:19;;;;;;;11.00;3.97;;;;;;;18.86;58.10;101644.19;4985974;28;20046;-83
2022/05/22 08:07:44;;;;;;;11.20;4.30;;;;;;;19.10;56.67;101643.31;4990019;28;20438;-84
2022/05/22 08:10:12;;;;;;;11.87;4.57;;;;;;;19.37;56.89;101642.59;4992202;28;20026;-84
2022/05/22 08:12:44;;;;;;;10.43;3.70;;;;;;;19.51;52.78;101645.38;4990934;28;20030;-84
2022/05/22 08:15:11;;;;;;;10.52;4.03;;;;;;;19.49;50.49;101644.03;4989492;28;20200;-84
2022/05/22 08:17:36;;;;;;;13.07;4.60;;;;;;;19.48;52.42;101637.81;4989685;28;20042;-85
2022/05/22 08:20:14;;;;;;;10.43;3.83;;;;;;;19.49;51.97;101628.56;4989398;28;20045;-84
2022/05/22 08:22:41;;;;;;;6.25;3.35;;;;;;;19.73;51.64;101624.84;4989231;28;20030;-83
2022/05/22 08:25:14;;;;;;;8.68;2.80;;;;;;;19.71;49.90;101609.94;5037027;22;20053;-84
2022/05/22 08:27:48;;;;;;;11.98;3.55;;;;;;;19.48;50.92;101583.44;5028124;28;20546;-83
2022/05/22 08:30:16;;;;;;;7.93;3.00;;;;;;;19.58;48.51;101598.75;5029553;28;20571;-84
2022/05/22 08:32:44;;;;;;;8.30;2.60;;;;;;;19.57;46.55;101608.03;5029099;28;20465;-84
2022/05/22 08:35:12;;;;;;;12.33;3.27;;;;;;;19.52;49.44;101610.81;5029966;28;20130;-84
2022/05/22 08:37:37;;;;;;;7.87;2.60;;;;;;;19.49;47.95;101598.66;5013403;28;20303;-84
2022/05/22 08:40:05;;;;;;;7.13;2.63;;;;;;;19.56;46.72;101594.72;5017527;28;20025;-84
2022/05/22 08:42:41;;;;;;;8.70;2.87;;;;;;;19.73;49.21;101584.06;5034382;28;20030;-84
2022/05/22 08:48:12;;;;;;;7.82;3.10;;;;;;;20.20;49.92;101591.31;5992230;22;20131;-85
2022/05/22 08:50:37;;;;;;;8.70;3.03;;;;;;;20.28;48.46;101579.69;5023443;28;20397;-84
2022/05/22 08:53:11;;;;;;;9.37;3.10;;;;;;;20.57;48.28;101578.53;5044545;28;20108;-82
2022/05/22 08:58:57;;;;;;;8.52;3.30;;;;;;;20.66;48.21;101571.22;5050056;28;20075;-84
2022/05/22 09:01:35;;;;;;;12.63;3.88;;;;;;;20.78;48.63;101567.19;5048637;28;20136;-84
2022/05/22 09:04:11;;;;;;;9.20;4.15;;;;;;;20.98;47.51;101572.13;5048039;28;20033;-83
2022/05/22 09:07:05;;;;;;;10.10;4.20;;;;;;;21.11;48.18;101564.19;5047611;28;20016;-92
2022/05/22 09:09:35;;;;;;;13.02;5.30;;;;;;;21.07;45.79;101563.19;5056529;28;20033;-92
2022/05/22 09:12:20;;;;;;;13.60;4.37;;;;;;;21.22;47.57;101554.63;5055225;28;20061;-92
2022/05/22 09:15:18;;;;;;;14.70;5.17;;;;;;;20.88;47.38;101562.31;5061451;28;20389;-95
2022/05/22 09:17:57;;;;;;;13.30;4.50;;;;;;;20.96;47.84;101559.94;5060193;28;20381;-91
2022/05/22 09:20:36;;;;;;;13.55;5.07;;;;;;;21.20;46.62;101545.97;5045519;28;20025;-93
2022/05/22 09:23:33;;;;;;;15.77;4.90;;;;;;;21.59;47.33;101549.81;5049970;28;20021;-91
2022/05/22 09:26:10;;;;;;;14.38;5.05;;;;;;;21.36;45.39;101537.41;5026308;28;20117;-89
2022/05/22 09:29:03;;;;;;;12.52;5.00;;;;;;;21.62;45.18;101541.03;5031175;28;20040;-90
2022/05/22 09:32:03;;;;;;;13.48;5.38;;;;;;;21.86;46.27;101542.56;5034551;28;20028;-90
2022/05/22 09:43:16;;;;;;;13.13;7.73;;;;;;;22.58;43.12;101536.84;5053918;28;20301;-92
2022/05/22 09:46:19;;;;;;;12.20;6.47;;;;;;;23.04;43.78;101537.22;5053454;28;20033;-91
2022/05/22 09:49:10;;;;;;;13.43;5.78;;;;;;;23.11;43.48;101532.06;5052339;28;20498;-92
2022/05/22 09:51:51;;;;;;;9.73;5.13;;;;;;;23.29;42.03;101529.31;5048477;28;20572;-92
2022/05/22 09:56:54;;;;;;;12.55;5.82;;;;;;;23.24;40.33;101529.47;5967957;22;20064;-92
2022/05/22 09:59:44;;;;;;;10.73;5.20;;;;;;;22.83;42.06;101510.59;5053614;28;20037;-92
2022/05/22 10:02:20;;;;;;;14.07;4.88;;;;;;;22.28;43.62;101514.00;5052966;28;20392;-92
2022/05/22 10:04:58;;;;;;;11.50;5.07;;;;;;;22.56;45.11;101530.09;5038283;28;20021;-93
2022/05/22 10:07:33;;;;;;;10.27;5.57;;;;;;;22.53;43.49;101535.09;5031912;28;20041;-92
2022/05/22 10:10:17;;;;;;;16.20;5.80;;;;;;;22.67;44.76;101529.44;5036911;28;20295;-91
2022/05/22 10:12:56;;;;;;;11.75;5.50;;;;;;;22.62;43.87;101526.09;5039418;28;20026;-90
2022/05/22 10:15:28;;;;;;;12.05;5.22;;;;;;;22.73;43.90;101535.53;5037155;28;20045;-93
2022/05/22 10:18:28;;;;;;;17.83;5.32;;;;;;;23.02;43.04;101527.75;5017449;28;20117;-93
2022/05/22 10:21:09;;;;;;;15.52;5.10;;;;;;;22.89;42.14;101522.19;5013115;28;20121;-91
2022/05/22 10:23:45;;;;;;;14.07;5.35;;;;;;;22.95;41.29;101517.34;5013482;28;20385;-92
2022/05/22 10:26:19;;;;;;;18.42;5.57;;;;;;;22.92;42.02;101521.50;5012787;28;20470;-92
2022/05/22 10:28:57;;;;;;;11.90;5.78;;;;;;;23.02;41.40;101516.84;5013335;28;20038;-92
2022/05/22 10:31:40;;;;;;;14.15;5.75;;;;;;;23.24;42.21;101508.44;5015378;28;20112;-93
2022/05/22 10:34:14;;;;;;;8.13;4.43;;;;;;;23.77;42.32;101493.66;5034700;28;20056;-93
2022/05/22 10:36:44;;;;;;;12.30;5.15;;;;;;;23.54;41.25;101497.50;5021528;28;20324;-91
2022/05/22 10:39:12;;;;;;;12.27;4.60;;;;;;;23.18;41.14;101500.72;5034059;28;20034;-91
2022/05/22 10:45:04;;;;;;;12.95;5.45;;;;;;;23.30;41.58;101481.72;5036621;28;20098;-90
2022/05/22 10:47:38;;;;;;;11.23;5.05;;;;;;;23.35;42.16;101483.44;5061914;28;20756;-92
2022/05/22 10:50:20;;;;;;;10.20;4.22;;;;;;;23.63;41.07;101469.31;5037090;28;20025;-90
2022/05/22 10:52:47;;;;;;;10.52;4.05;;;;;;;24.02;38.28;101473.56;5029998;28;20040;-89
2022/05/22 10:55:20;;;;;;;12.05;4.65;;;;;;;23.84;38.73;101469.31;5047835;28;20072;-89
2022/05/22 10:57:54;;;;;;;11.18;4.60;;;;;;;23.83;39.62;101464.97;5032110;28;20033;-90
2022/05/22 11:00:21;;;;;;;13.17;5.27;;;;;;;23.36;38.44;101455.78;5049138;28;20032;-90
2022/05/22 11:02:47;;;;;;;13.17;5.30;;;;;;;23.13;39.31;101453.28;5043282;28;20303;-90
2022/05/22 11:05:27;;;;;;;9.35;4.93;;;;;;;23.04;40.37;101455.25;5013805;28;20041;-90
2022/05/22 11:07:54;;;;;;;8.20;4.47;;;;;;;23.22;40.65;101447.81;5015152;28;20038;-89
2022/05/22 11:10:33;;;;;;;12.93;5.30;;;;;;;23.63;40.48;101453.69;5030694;28;20041;-91
2022/05/22 11:13:11;;;;;;;15.65;5.72;;;;;;;23.83;40.23;101454.03;5040855;28;20033;-90
2022/05/22 11:15:39;;;;;;;12.35;6.40;;;;;;;24.02;39.95;101448.91;5051726;28;20025;-90
2022/05/22 11:18:18;;;;;;;15.05;5.90;;;;;;;24.37;38.97;101452.47;5032539;28;20049;-90
2022/05/22 11:21:01;;;;;;;12.30;5.20;;;;;;;24.30;38.93;101444.81;5012482;28;20501;-90
2022/05/22 11:23:32;;;;;;;10.77;6.45;;;;;;;23.99;38.27;101446.06;5012465;28;20064;-91
2022/05/22 11:26:00;;;;;;;11.30;5.40;;;;;;;24.19;40.01;101444.44;5024942;28;20092;-91
2022/05/22 11:28:51;;;;;;;11.93;5.30;;;;;;;24.36;40.51;101435.25;5059525;28;20107;-91
2022/05/22 11:31:28;;;;;;;14.73;6.20;;;;;;;24.16;38.39;101425.94;5074446;28;20055;-91
2022/05/22 11:34:24;;;;;;;11.57;6.30;;;;;;;24.04;39.88;101416.53;5055144;28;20276;-90
2022/05/22 11:37:10;;;;;;;11.88;6.05;;;;;;;23.97;39.34;101408.06;5031831;28;20308;-90
2022/05/22 11:39:44;;;;;;;15.25;5.85;;;;;;;24.25;39.28;101406.69;5039866;28;20029;-90
2022/05/22 11:42:21;;;;;;;11.85;5.70;;;;;;;24.50;38.55;101399.31;5059779;28;20039;-90
2022/05/22 11:44:58;;;;;;;13.20;5.50;;;;;;;24.40;38.42;101397.03;5056418;28;20021;-89
2022/05/22 11:47:45;;;;;;;9.63;6.20;;;;;;;24.45;38.40;101394.88;5055304;28;20040;-90
2022/05/22 11:50:44;;;;;;;11.57;6.13;;;;;;;24.97;38.87;101389.13;5030935;28;20069;-90
2022/05/22 11:53:41;;;;;;;8.18;4.72;;;;;;;25.24;37.74;101393.09;5038042;28;20476;-90
2022/05/22 11:56:47;;;;;;;11.55;5.50;;;;;;;25.51;36.23;101388.03;5007940;28;20038;-90
2022/05/22 12:04:34;;;;;;;10.98;4.57;;;;;;;25.68;37.00;101373.25;5010012;28;20040;-90
2022/05/22 12:07:20;;;;;;;14.40;5.38;;;;;;;25.54;35.65;101365.41;5009241;28;20034;-92